Flugplatz Schmidgaden

Für EDPQ sind keine METAR/TAF Berichte vorhanden.
Es werden die Flugwettermeldungen vom Flugplatz Hohenfels Army Air Field in 30 km Entfernung angezeigt.

Bericht für ETIH

vom 23.02. um 22:56 UTC

Wind 15 kt aus 300° in Böen 23 kt

Sichtweite 10 km oder mehr

starker Regen

aufgebrochene Bewölkung in 2200 ft

bedeckt in 2900 ft

Temperatur 7.5°C

Taupunkt 4.8°C

Luftfeuchtigkeit 83%

Luftdruck 1018 hPa

ETIH 232256Z AUTO 30015G23KT 9999 +RA BKN022 OVC029 08/05 A3007 RMK AO2 PK WND 27040/22 PRESRR SLP190 P0003 T00750048 401350067
Keine Prognose (TAF) verfügbar.
Impressum